sensor_id;sensor_type;location;lat;lon;timestamp;temperature;humidity
25512;DHT22;13414;44.534;18.700;2023-10-31T06:23:41;21.60;1.00
25512;DHT22;13414;44.534;18.700;2023-10-31T08:35:13;22.50;1.00
25512;DHT22;13414;44.534;18.700;2023-10-31T08:38:52;22.60;1.00
25512;DHT22;13414;44.534;18.700;2023-10-31T09:38:24;23.80;1.00
25512;DHT22;13414;44.534;18.700;2023-10-31T09:40:53;23.90;1.00
25512;DHT22;13414;44.534;18.700;2023-10-31T09:43:21;23.90;1.00
25512;DHT22;13414;44.534;18.700;2023-10-31T09:45:49;24.00;1.00
25512;DHT22;13414;44.534;18.700;2023-10-31T09:48:17;24.10;1.00
25512;DHT22;13414;44.534;18.700;2023-10-31T09:50:46;24.10;1.00
25512;DHT22;13414;44.534;18.700;2023-10-31T09:53:14;24.10;1.00
25512;DHT22;13414;44.534;18.700;2023-10-31T09:55:45;24.20;1.00
25512;DHT22;13414;44.534;18.700;2023-10-31T09:58:13;24.20;1.00
25512;DHT22;13414;44.534;18.700;2023-10-31T10:00:40;24.30;1.00
25512;DHT22;13414;44.534;18.700;2023-10-31T10:03:09;24.40;1.00
25512;DHT22;13414;44.534;18.700;2023-10-31T10:05:39;24.50;1.00
25512;DHT22;13414;44.534;18.700;2023-10-31T10:08:07;24.50;1.00
25512;DHT22;13414;44.534;18.700;2023-10-31T10:10:36;24.50;1.00
25512;DHT22;13414;44.534;18.700;2023-10-31T10:13:05;24.60;1.00
25512;DHT22;13414;44.534;18.700;2023-10-31T10:15:43;24.70;1.00
25512;DHT22;13414;44.534;18.700;2023-10-31T10:18:24;24.70;1.00
25512;DHT22;13414;44.534;18.700;2023-10-31T10:20:56;24.80;1.00
25512;DHT22;13414;44.534;18.700;2023-10-31T10:23:25;24.80;1.00
25512;DHT22;13414;44.534;18.700;2023-10-31T10:25:53;24.80;1.00
25512;DHT22;13414;44.534;18.700;2023-10-31T10:28:24;24.90;1.00
25512;DHT22;13414;44.534;18.700;2023-10-31T10:30:52;24.80;1.00
25512;DHT22;13414;44.534;18.700;2023-10-31T10:33:21;24.90;1.00
25512;DHT22;13414;44.534;18.700;2023-10-31T10:35:49;24.90;1.00
25512;DHT22;13414;44.534;18.700;2023-10-31T10:38:18;24.80;1.00
25512;DHT22;13414;44.534;18.700;2023-10-31T10:40:47;24.80;1.00
25512;DHT22;13414;44.534;18.700;2023-10-31T10:43:20;24.80;1.00
25512;DHT22;13414;44.534;18.700;2023-10-31T10:45:53;24.80;1.00
25512;DHT22;13414;44.534;18.700;2023-10-31T10:48:24;24.80;1.00
25512;DHT22;13414;44.534;18.700;2023-10-31T10:51:05;24.80;1.00
25512;DHT22;13414;44.534;18.700;2023-10-31T10:53:38;24.80;1.00
25512;DHT22;13414;44.534;18.700;2023-10-31T10:56:21;24.90;1.00
25512;DHT22;13414;44.534;18.700;2023-10-31T10:59:00;24.80;1.00
25512;DHT22;13414;44.534;18.700;2023-10-31T11:01:31;24.80;1.00
25512;DHT22;13414;44.534;18.700;2023-10-31T11:03:59;24.90;1.00
25512;DHT22;13414;44.534;18.700;2023-10-31T11:06:29;24.90;1.00
25512;DHT22;13414;44.534;18.700;2023-10-31T11:08:58;24.90;1.00
25512;DHT22;13414;44.534;18.700;2023-10-31T11:11:26;24.90;1.00
25512;DHT22;13414;44.534;18.700;2023-10-31T11:13:55;25.00;1.00
25512;DHT22;13414;44.534;18.700;2023-10-31T11:16:33;25.10;1.00
25512;DHT22;13414;44.534;18.700;2023-10-31T11:19:02;25.20;1.00
25512;DHT22;13414;44.534;18.700;2023-10-31T11:21:31;25.20;1.00
25512;DHT22;13414;44.534;18.700;2023-10-31T11:23:59;25.40;1.00
25512;DHT22;13414;44.534;18.700;2023-10-31T11:26:28;25.40;1.00
25512;DHT22;13414;44.534;18.700;2023-10-31T11:29:04;25.40;1.00
25512;DHT22;13414;44.534;18.700;2023-10-31T11:31:33;25.30;1.00
25512;DHT22;13414;44.534;18.700;2023-10-31T11:34:01;25.40;1.00
25512;DHT22;13414;44.534;18.700;2023-10-31T11:36:30;25.50;1.00
25512;DHT22;13414;44.534;18.700;2023-10-31T11:39:13;25.60;1.00
25512;DHT22;13414;44.534;18.700;2023-10-31T11:41:48;25.70;1.00
25512;DHT22;13414;44.534;18.700;2023-10-31T11:44:16;25.80;1.00
25512;DHT22;13414;44.534;18.700;2023-10-31T11:46:45;25.70;1.00
25512;DHT22;13414;44.534;18.700;2023-10-31T11:49:17;25.60;1.00
25512;DHT22;13414;44.534;18.700;2023-10-31T11:51:45;25.40;1.00
25512;DHT22;13414;44.534;18.700;2023-10-31T11:54:14;25.40;1.00
25512;DHT22;13414;44.534;18.700;2023-10-31T11:56:42;25.40;1.00
25512;DHT22;13414;44.534;18.700;2023-10-31T11:59:17;25.30;1.00
25512;DHT22;13414;44.534;18.700;2023-10-31T12:01:47;25.20;1.00
25512;DHT22;13414;44.534;18.700;2023-10-31T12:04:24;25.30;1.00
25512;DHT22;13414;44.534;18.700;2023-10-31T12:06:58;25.40;1.00
25512;DHT22;13414;44.534;18.700;2023-10-31T12:09:27;25.50;1.00
25512;DHT22;13414;44.534;18.700;2023-10-31T12:11:55;25.50;1.00
25512;DHT22;13414;44.534;18.700;2023-10-31T12:14:22;25.50;1.00
25512;DHT22;13414;44.534;18.700;2023-10-31T12:16:52;25.60;1.00
25512;DHT22;13414;44.534;18.700;2023-10-31T12:19:23;25.80;1.00
25512;DHT22;13414;44.534;18.700;2023-10-31T12:21:51;25.90;1.00
25512;DHT22;13414;44.534;18.700;2023-10-31T12:24:19;26.10;1.00
25512;DHT22;13414;44.534;18.700;2023-10-31T12:26:46;26.30;1.00
25512;DHT22;13414;44.534;18.700;2023-10-31T12:29:16;26.40;1.00
25512;DHT22;13414;44.534;18.700;2023-10-31T12:31:46;26.20;1.00
25512;DHT22;13414;44.534;18.700;2023-10-31T12:34:16;26.10;1.00
25512;DHT22;13414;44.534;18.700;2023-10-31T12:36:46;26.10;1.00
25512;DHT22;13414;44.534;18.700;2023-10-31T12:39:15;26.00;1.00
25512;DHT22;13414;44.534;18.700;2023-10-31T12:41:43;26.10;1.00
25512;DHT22;13414;44.534;18.700;2023-10-31T12:44:14;26.10;1.00
25512;DHT22;13414;44.534;18.700;2023-10-31T12:46:46;26.10;1.00
25512;DHT22;13414;44.534;18.700;2023-10-31T12:49:19;26.10;1.00
25512;DHT22;13414;44.534;18.700;2023-10-31T12:51:57;26.20;1.00
25512;DHT22;13414;44.534;18.700;2023-10-31T12:54:29;26.20;1.00
25512;DHT22;13414;44.534;18.700;2023-10-31T12:57:00;26.10;1.00
25512;DHT22;13414;44.534;18.700;2023-10-31T12:59:27;26.10;1.00
25512;DHT22;13414;44.534;18.700;2023-10-31T13:01:55;26.00;1.00
25512;DHT22;13414;44.534;18.700;2023-10-31T13:04:30;26.00;1.00
25512;DHT22;13414;44.534;18.700;2023-10-31T13:06:58;26.00;1.00
25512;DHT22;13414;44.534;18.700;2023-10-31T13:09:30;26.10;1.00
25512;DHT22;13414;44.534;18.700;2023-10-31T13:12:00;26.10;1.00
25512;DHT22;13414;44.534;18.700;2023-10-31T13:14:28;26.10;1.00
25512;DHT22;13414;44.534;18.700;2023-10-31T13:16:56;26.10;1.00
25512;DHT22;13414;44.534;18.700;2023-10-31T13:19:23;26.10;1.00
25512;DHT22;13414;44.534;18.700;2023-10-31T13:21:52;26.00;1.00
25512;DHT22;13414;44.534;18.700;2023-10-31T13:24:20;26.00;1.00
25512;DHT22;13414;44.534;18.700;2023-10-31T13:26:48;25.90;1.00
25512;DHT22;13414;44.534;18.700;2023-10-31T13:29:17;25.70;1.00
25512;DHT22;13414;44.534;18.700;2023-10-31T13:31:45;25.70;1.00
25512;DHT22;13414;44.534;18.700;2023-10-31T13:34:12;25.70;1.00
25512;DHT22;13414;44.534;18.700;2023-10-31T13:36:40;25.70;1.00
25512;DHT22;13414;44.534;18.700;2023-10-31T13:39:10;25.70;1.00
25512;DHT22;13414;44.534;18.700;2023-10-31T13:41:37;25.60;1.00
25512;DHT22;13414;44.534;18.700;2023-10-31T13:44:05;25.60;1.00
25512;DHT22;13414;44.534;18.700;2023-10-31T13:46:33;25.40;1.00
25512;DHT22;13414;44.534;18.700;2023-10-31T13:49:00;25.30;1.00
25512;DHT22;13414;44.534;18.700;2023-10-31T13:51:29;25.10;1.00
25512;DHT22;13414;44.534;18.700;2023-10-31T13:53:57;25.00;1.00
25512;DHT22;13414;44.534;18.700;2023-10-31T13:56:26;25.00;1.00
25512;DHT22;13414;44.534;18.700;2023-10-31T13:58:53;25.00;1.00
25512;DHT22;13414;44.534;18.700;2023-10-31T14:01:21;24.90;1.00
25512;DHT22;13414;44.534;18.700;2023-10-31T14:03:50;24.80;1.00
25512;DHT22;13414;44.534;18.700;2023-10-31T14:06:18;24.70;1.00
25512;DHT22;13414;44.534;18.700;2023-10-31T14:08:46;24.70;1.00
25512;DHT22;13414;44.534;18.700;2023-10-31T14:11:13;24.70;1.00
25512;DHT22;13414;44.534;18.700;2023-10-31T14:13:42;24.70;1.00
25512;DHT22;13414;44.534;18.700;2023-10-31T14:16:11;24.70;1.00
25512;DHT22;13414;44.534;18.700;2023-10-31T14:18:39;24.70;1.00
25512;DHT22;13414;44.534;18.700;2023-10-31T14:21:07;24.60;1.00
25512;DHT22;13414;44.534;18.700;2023-10-31T14:23:34;24.40;1.00
25512;DHT22;13414;44.534;18.700;2023-10-31T14:26:02;24.10;1.00
25512;DHT22;13414;44.534;18.700;2023-10-31T14:28:31;23.60;1.00
25512;DHT22;13414;44.534;18.700;2023-10-31T14:31:00;23.40;1.00
25512;DHT22;13414;44.534;18.700;2023-10-31T14:33:28;23.20;1.00
25512;DHT22;13414;44.534;18.700;2023-10-31T14:35:56;23.10;1.00
25512;DHT22;13414;44.534;18.700;2023-10-31T14:38:24;22.90;1.00
25512;DHT22;13414;44.534;18.700;2023-10-31T14:40:51;22.70;1.00
25512;DHT22;13414;44.534;18.700;2023-10-31T14:43:19;22.70;1.00
25512;DHT22;13414;44.534;18.700;2023-10-31T14:45:47;22.60;1.00
25512;DHT22;13414;44.534;18.700;2023-10-31T14:48:16;22.40;1.00
25512;DHT22;13414;44.534;18.700;2023-10-31T14:50:43;22.30;1.00
25512;DHT22;13414;44.534;18.700;2023-10-31T14:53:11;22.10;1.00
25512;DHT22;13414;44.534;18.700;2023-10-31T14:55:38;21.90;1.00
25512;DHT22;13414;44.534;18.700;2023-10-31T14:58:06;21.80;1.00
25512;DHT22;13414;44.534;18.700;2023-10-31T15:00:34;21.70;1.00
25512;DHT22;13414;44.534;18.700;2023-10-31T15:03:03;21.60;1.00
25512;DHT22;13414;44.534;18.700;2023-10-31T15:05:32;21.60;1.00
25512;DHT22;13414;44.534;18.700;2023-10-31T15:07:59;21.60;1.00
25512;DHT22;13414;44.534;18.700;2023-10-31T15:10:28;21.60;1.00
25512;DHT22;13414;44.534;18.700;2023-10-31T15:12:56;21.70;1.00
25512;DHT22;13414;44.534;18.700;2023-10-31T15:15:24;21.80;1.00
25512;DHT22;13414;44.534;18.700;2023-10-31T15:17:52;21.70;1.00
25512;DHT22;13414;44.534;18.700;2023-10-31T15:20:19;21.80;1.00
25512;DHT22;13414;44.534;18.700;2023-10-31T15:22:48;21.80;1.00
25512;DHT22;13414;44.534;18.700;2023-10-31T15:25:16;21.80;1.00
25512;DHT22;13414;44.534;18.700;2023-10-31T15:27:44;21.80;1.00
25512;DHT22;13414;44.534;18.700;2023-10-31T15:30:11;21.80;1.00
25512;DHT22;13414;44.534;18.700;2023-10-31T15:32:39;21.80;1.00
25512;DHT22;13414;44.534;18.700;2023-10-31T15:35:07;21.80;1.00
25512;DHT22;13414;44.534;18.700;2023-10-31T15:37:36;21.80;1.00
25512;DHT22;13414;44.534;18.700;2023-10-31T15:40:07;21.70;1.00
25512;DHT22;13414;44.534;18.700;2023-10-31T15:42:35;21.70;1.00
25512;DHT22;13414;44.534;18.700;2023-10-31T15:45:04;21.70;1.00
25512;DHT22;13414;44.534;18.700;2023-10-31T15:47:32;21.60;1.00
25512;DHT22;13414;44.534;18.700;2023-10-31T15:49:59;21.60;1.00
25512;DHT22;13414;44.534;18.700;2023-10-31T15:52:27;21.50;1.00
25512;DHT22;13414;44.534;18.700;2023-10-31T15:54:55;21.40;1.00
25512;DHT22;13414;44.534;18.700;2023-10-31T15:57:25;21.40;1.00
25512;DHT22;13414;44.534;18.700;2023-10-31T15:59:57;21.40;1.00
25512;DHT22;13414;44.534;18.700;2023-10-31T16:02:24;21.30;1.00
25512;DHT22;13414;44.534;18.700;2023-10-31T16:04:52;21.30;1.00
25512;DHT22;13414;44.534;18.700;2023-10-31T16:07:20;21.40;1.00
25512;DHT22;13414;44.534;18.700;2023-10-31T16:09:47;21.30;1.00
25512;DHT22;13414;44.534;18.700;2023-10-31T16:12:15;21.30;1.00
25512;DHT22;13414;44.534;18.700;2023-10-31T16:14:46;21.20;1.00
25512;DHT22;13414;44.534;18.700;2023-10-31T16:17:13;21.20;1.00
25512;DHT22;13414;44.534;18.700;2023-10-31T16:19:41;21.10;1.00
25512;DHT22;13414;44.534;18.700;2023-10-31T16:22:12;21.00;1.00
25512;DHT22;13414;44.534;18.700;2023-10-31T16:24:43;20.90;1.00
25512;DHT22;13414;44.534;18.700;2023-10-31T16:27:11;20.70;1.00
25512;DHT22;13414;44.534;18.700;2023-10-31T16:29:38;20.30;99.90
25512;DHT22;13414;44.534;18.700;2023-10-31T16:32:07;20.10;99.90
25512;DHT22;13414;44.534;18.700;2023-10-31T16:34:35;20.00;1.00
25512;DHT22;13414;44.534;18.700;2023-10-31T16:37:03;19.90;1.00
25512;DHT22;13414;44.534;18.700;2023-10-31T16:39:31;19.80;1.00
25512;DHT22;13414;44.534;18.700;2023-10-31T16:42:00;19.70;1.00
25512;DHT22;13414;44.534;18.700;2023-10-31T16:44:28;19.50;1.00
25512;DHT22;13414;44.534;18.700;2023-10-31T16:46:55;19.50;99.90
25512;DHT22;13414;44.534;18.700;2023-10-31T16:49:27;19.30;1.00
25512;DHT22;13414;44.534;18.700;2023-10-31T16:51:55;19.30;99.90
25512;DHT22;13414;44.534;18.700;2023-10-31T16:54:22;19.30;1.00
25512;DHT22;13414;44.534;18.700;2023-10-31T16:56:50;19.20;99.90
25512;DHT22;13414;44.534;18.700;2023-10-31T16:59:18;19.20;1.00
25512;DHT22;13414;44.534;18.700;2023-10-31T17:01:46;19.20;99.90
25512;DHT22;13414;44.534;18.700;2023-10-31T17:04:13;19.20;1.00
25512;DHT22;13414;44.534;18.700;2023-10-31T17:06:43;19.20;1.00
25512;DHT22;13414;44.534;18.700;2023-10-31T17:09:14;19.10;1.00
25512;DHT22;13414;44.534;18.700;2023-10-31T17:11:44;19.00;1.00
25512;DHT22;13414;44.534;18.700;2023-10-31T17:14:11;19.00;99.90
25512;DHT22;13414;44.534;18.700;2023-10-31T17:16:39;18.90;1.00
25512;DHT22;13414;44.534;18.700;2023-10-31T17:19:07;18.80;1.00
25512;DHT22;13414;44.534;18.700;2023-10-31T17:21:36;18.80;1.00
25512;DHT22;13414;44.534;18.700;2023-10-31T17:24:07;18.80;99.90
25512;DHT22;13414;44.534;18.700;2023-10-31T17:26:35;18.90;99.90
25512;DHT22;13414;44.534;18.700;2023-10-31T17:29:04;18.80;1.00
25512;DHT22;13414;44.534;18.700;2023-10-31T17:31:32;18.80;1.00
25512;DHT22;13414;44.534;18.700;2023-10-31T17:34:00;18.80;1.00
25512;DHT22;13414;44.534;18.700;2023-10-31T17:36:28;18.70;1.00
25512;DHT22;13414;44.534;18.700;2023-10-31T17:38:56;18.60;1.00
25512;DHT22;13414;44.534;18.700;2023-10-31T17:41:25;18.60;99.90
25512;DHT22;13414;44.534;18.700;2023-10-31T17:43:53;18.60;1.00
25512;DHT22;13414;44.534;18.700;2023-10-31T17:46:22;18.50;1.00
25512;DHT22;13414;44.534;18.700;2023-10-31T17:48:52;18.40;1.00
25512;DHT22;13414;44.534;18.700;2023-10-31T17:51:19;18.20;1.00
25512;DHT22;13414;44.534;18.700;2023-10-31T17:53:47;18.10;1.00
25512;DHT22;13414;44.534;18.700;2023-10-31T17:56:15;17.90;1.00
25512;DHT22;13414;44.534;18.700;2023-10-31T17:58:44;17.70;99.90
25512;DHT22;13414;44.534;18.700;2023-10-31T18:01:12;17.60;1.00
25512;DHT22;13414;44.534;18.700;2023-10-31T18:03:40;17.50;99.90
25512;DHT22;13414;44.534;18.700;2023-10-31T18:06:08;17.40;23.20
25512;DHT22;13414;44.534;18.700;2023-10-31T18:08:35;17.20;1.00
25512;DHT22;13414;44.534;18.700;2023-10-31T18:11:03;17.20;1.00
25512;DHT22;13414;44.534;18.700;2023-10-31T18:13:31;17.20;99.90
25512;DHT22;13414;44.534;18.700;2023-10-31T18:16:00;17.10;99.90
25512;DHT22;13414;44.534;18.700;2023-10-31T18:18:28;17.00;99.90
25512;DHT22;13414;44.534;18.700;2023-10-31T18:20:56;17.00;1.00
25512;DHT22;13414;44.534;18.700;2023-10-31T18:23:27;16.80;99.90
25512;DHT22;13414;44.534;18.700;2023-10-31T18:25:55;16.70;1.00
25512;DHT22;13414;44.534;18.700;2023-10-31T18:28:24;16.60;1.00
25512;DHT22;13414;44.534;18.700;2023-10-31T18:30:52;16.50;99.90
25512;DHT22;13414;44.534;18.700;2023-10-31T18:33:21;16.50;1.00
25512;DHT22;13414;44.534;18.700;2023-10-31T18:35:48;16.40;1.00
25512;DHT22;13414;44.534;18.700;2023-10-31T18:38:16;16.20;1.00
25512;DHT22;13414;44.534;18.700;2023-10-31T18:40:44;16.10;1.00
25512;DHT22;13414;44.534;18.700;2023-10-31T18:43:12;16.00;1.00
25512;DHT22;13414;44.534;18.700;2023-10-31T18:45:48;15.80;99.90
25512;DHT22;13414;44.534;18.700;2023-10-31T18:48:16;15.70;99.90
25512;DHT22;13414;44.534;18.700;2023-10-31T18:50:49;15.70;99.90
25512;DHT22;13414;44.534;18.700;2023-10-31T18:56:52;15.70;99.90
25512;DHT22;13414;44.534;18.700;2023-10-31T18:59:24;15.60;99.90
25512;DHT22;13414;44.534;18.700;2023-10-31T19:02:05;15.50;99.90
25512;DHT22;13414;44.534;18.700;2023-10-31T19:04:51;15.50;99.90
25512;DHT22;13414;44.534;18.700;2023-10-31T19:07:35;15.40;99.90
25512;DHT22;13414;44.534;18.700;2023-10-31T19:22:35;15.20;99.90
25512;DHT22;13414;44.534;18.700;2023-10-31T19:25:41;15.20;99.90
25512;DHT22;13414;44.534;18.700;2023-10-31T19:28:10;15.10;49.70
25512;DHT22;13414;44.534;18.700;2023-10-31T19:30:37;15.10;92.20
25512;DHT22;13414;44.534;18.700;2023-10-31T19:33:06;15.20;1.00
25512;DHT22;13414;44.534;18.700;2023-10-31T19:35:34;15.10;1.00
25512;DHT22;13414;44.534;18.700;2023-10-31T19:42:10;14.90;1.00
25512;DHT22;13414;44.534;18.700;2023-10-31T19:44:43;14.70;1.00
25512;DHT22;13414;44.534;18.700;2023-10-31T19:47:20;14.60;1.00
25512;DHT22;13414;44.534;18.700;2023-10-31T19:50:12;14.50;81.80
25512;DHT22;13414;44.534;18.700;2023-10-31T19:52:59;14.60;1.00
25512;DHT22;13414;44.534;18.700;2023-10-31T19:55:46;14.60;1.00
25512;DHT22;13414;44.534;18.700;2023-10-31T19:58:30;14.50;1.00
25512;DHT22;13414;44.534;18.700;2023-10-31T20:01:27;14.30;1.00
25512;DHT22;13414;44.534;18.700;2023-10-31T20:04:05;14.20;1.00
25512;DHT22;13414;44.534;18.700;2023-10-31T20:06:52;14.10;9.30
25512;DHT22;13414;44.534;18.700;2023-10-31T20:09:38;14.00;99.90
25512;DHT22;13414;44.534;18.700;2023-10-31T20:12:11;13.90;99.90
25512;DHT22;13414;44.534;18.700;2023-10-31T20:17:41;13.70;99.90
25512;DHT22;13414;44.534;18.700;2023-10-31T20:20:13;13.70;99.90
25512;DHT22;13414;44.534;18.700;2023-10-31T20:22:42;13.80;99.90
25512;DHT22;13414;44.534;18.700;2023-10-31T20:25:15;13.80;99.90
25512;DHT22;13414;44.534;18.700;2023-10-31T20:27:47;13.70;99.90
25512;DHT22;13414;44.534;18.700;2023-10-31T20:30:26;13.80;99.90
25512;DHT22;13414;44.534;18.700;2023-10-31T20:32:58;13.60;99.90
25512;DHT22;13414;44.534;18.700;2023-10-31T20:35:26;13.50;99.90
25512;DHT22;13414;44.534;18.700;2023-10-31T20:38:02;13.30;99.90
25512;DHT22;13414;44.534;18.700;2023-10-31T20:40:44;13.20;99.90
25512;DHT22;13414;44.534;18.700;2023-10-31T20:43:12;13.20;99.90
25512;DHT22;13414;44.534;18.700;2023-10-31T20:45:42;13.10;99.90
25512;DHT22;13414;44.534;18.700;2023-10-31T20:48:09;13.10;99.90
25512;DHT22;13414;44.534;18.700;2023-10-31T20:50:37;13.10;99.90
25512;DHT22;13414;44.534;18.700;2023-10-31T20:53:05;13.00;99.90
25512;DHT22;13414;44.534;18.700;2023-10-31T20:55:34;13.00;99.90
25512;DHT22;13414;44.534;18.700;2023-10-31T20:58:05;13.00;99.90
25512;DHT22;13414;44.534;18.700;2023-10-31T21:00:51;13.10;99.90
25512;DHT22;13414;44.534;18.700;2023-10-31T21:21:00;12.50;99.90
25512;DHT22;13414;44.534;18.700;2023-10-31T21:23:28;12.40;99.90
25512;DHT22;13414;44.534;18.700;2023-10-31T21:25:55;12.40;99.90
25512;DHT22;13414;44.534;18.700;2023-10-31T21:28:23;12.50;99.90
25512;DHT22;13414;44.534;18.700;2023-10-31T21:30:50;12.40;99.90
25512;DHT22;13414;44.534;18.700;2023-10-31T21:33:19;12.40;99.90
25512;DHT22;13414;44.534;18.700;2023-10-31T21:35:49;12.30;99.90
25512;DHT22;13414;44.534;18.700;2023-10-31T21:38:18;12.30;99.90
25512;DHT22;13414;44.534;18.700;2023-10-31T21:40:46;12.40;99.90
25512;DHT22;13414;44.534;18.700;2023-10-31T21:43:14;12.40;99.90
25512;DHT22;13414;44.534;18.700;2023-10-31T21:45:41;12.40;99.90
25512;DHT22;13414;44.534;18.700;2023-10-31T21:48:09;12.50;99.90
25512;DHT22;13414;44.534;18.700;2023-10-31T21:50:36;12.40;99.90
25512;DHT22;13414;44.534;18.700;2023-10-31T21:53:04;12.40;99.90
25512;DHT22;13414;44.534;18.700;2023-10-31T21:55:48;12.40;99.90
25512;DHT22;13414;44.534;18.700;2023-10-31T21:58:16;12.30;99.90
25512;DHT22;13414;44.534;18.700;2023-10-31T22:00:43;12.20;99.90
25512;DHT22;13414;44.534;18.700;2023-10-31T22:03:11;12.20;99.90
25512;DHT22;13414;44.534;18.700;2023-10-31T22:05:39;12.20;99.90
25512;DHT22;13414;44.534;18.700;2023-10-31T22:08:06;12.10;99.90
25512;DHT22;13414;44.534;18.700;2023-10-31T22:10:34;12.10;99.90
25512;DHT22;13414;44.534;18.700;2023-10-31T22:13:03;12.00;99.90
25512;DHT22;13414;44.534;18.700;2023-10-31T22:15:31;12.10;99.90
25512;DHT22;13414;44.534;18.700;2023-10-31T22:17:58;12.00;99.90
25512;DHT22;13414;44.534;18.700;2023-10-31T22:20:26;12.00;99.90
25512;DHT22;13414;44.534;18.700;2023-10-31T22:22:53;12.00;99.90
25512;DHT22;13414;44.534;18.700;2023-10-31T22:25:21;12.10;99.90
25512;DHT22;13414;44.534;18.700;2023-10-31T22:27:48;12.10;99.90
25512;DHT22;13414;44.534;18.700;2023-10-31T22:30:17;12.00;99.90
25512;DHT22;13414;44.534;18.700;2023-10-31T22:32:45;11.90;99.90
25512;DHT22;13414;44.534;18.700;2023-10-31T22:35:12;12.00;99.90
25512;DHT22;13414;44.534;18.700;2023-10-31T22:37:40;11.90;99.90
25512;DHT22;13414;44.534;18.700;2023-10-31T22:40:10;11.80;99.90
25512;DHT22;13414;44.534;18.700;2023-10-31T22:42:37;11.90;99.90
25512;DHT22;13414;44.534;18.700;2023-10-31T22:45:06;11.90;99.90
25512;DHT22;13414;44.534;18.700;2023-10-31T22:47:36;11.80;99.90
25512;DHT22;13414;44.534;18.700;2023-10-31T22:50:06;11.70;99.90
25512;DHT22;13414;44.534;18.700;2023-10-31T22:52:34;11.80;99.90
25512;DHT22;13414;44.534;18.700;2023-10-31T22:58:27;11.70;99.90
25512;DHT22;13414;44.534;18.700;2023-10-31T23:00:55;11.70;99.90
25512;DHT22;13414;44.534;18.700;2023-10-31T23:03:24;11.80;99.90
25512;DHT22;13414;44.534;18.700;2023-10-31T23:05:53;11.70;99.90
25512;DHT22;13414;44.534;18.700;2023-10-31T23:08:22;11.70;99.90
25512;DHT22;13414;44.534;18.700;2023-10-31T23:10:53;11.60;99.90
25512;DHT22;13414;44.534;18.700;2023-10-31T23:13:21;11.60;99.90
25512;DHT22;13414;44.534;18.700;2023-10-31T23:15:49;11.60;99.90
25512;DHT22;13414;44.534;18.700;2023-10-31T23:18:16;11.60;99.90
25512;DHT22;13414;44.534;18.700;2023-10-31T23:20:45;11.70;99.90
25512;DHT22;13414;44.534;18.700;2023-10-31T23:23:13;11.70;99.90
25512;DHT22;13414;44.534;18.700;2023-10-31T23:25:41;11.60;99.90
25512;DHT22;13414;44.534;18.700;2023-10-31T23:28:10;11.50;99.90
25512;DHT22;13414;44.534;18.700;2023-10-31T23:30:38;11.40;99.90
25512;DHT22;13414;44.534;18.700;2023-10-31T23:33:05;11.40;99.90
25512;DHT22;13414;44.534;18.700;2023-10-31T23:35:33;11.50;99.90
25512;DHT22;13414;44.534;18.700;2023-10-31T23:38:02;11.30;99.90
25512;DHT22;13414;44.534;18.700;2023-10-31T23:40:30;11.50;99.90
25512;DHT22;13414;44.534;18.700;2023-10-31T23:42:58;11.40;99.90
25512;DHT22;13414;44.534;18.700;2023-10-31T23:45:25;11.30;99.90
25512;DHT22;13414;44.534;18.700;2023-10-31T23:47:53;11.30;99.90
25512;DHT22;13414;44.534;18.700;2023-10-31T23:50:20;11.40;99.90
25512;DHT22;13414;44.534;18.700;2023-10-31T23:52:48;11.40;99.90
25512;DHT22;13414;44.534;18.700;2023-10-31T23:55:17;11.50;99.90
25512;DHT22;13414;44.534;18.700;2023-10-31T23:57:45;11.50;99.90
